EDT,Max TemperatureF,Mean TemperatureF,Min TemperatureF,Max Dew PointF,MeanDew PointF,Min DewpointF,Max Humidity, Mean Humidity, Min Humidity, Max Sea Level PressureIn, Mean Sea Level PressureIn, Min Sea Level PressureIn, Max VisibilityMiles, Mean VisibilityMiles, Min VisibilityMiles, Max Wind SpeedMPH, Mean Wind SpeedMPH, Max Gust SpeedMPH,PrecipitationIn, CloudCover, Events, WindDirDegrees
2011-10-1,62,58,53,57,55,50,94,88,82,29.85,29.73,29.60,10,5,0,14,5,21,0.51,7,,50
2011-10-2,59,56,53,54,53,50,94,88,82,29.96,29.91,29.88,10,6,2,14,10,21,0.52,8,Thunderstorm,45
2011-10-3,62,58,53,55,53,50,94,86,68,30.10,30.02,29.90,10,8,2,12,4,,0.08,7,,44
2011-10-4,57,55,51,54,51,46,94,85,77,30.08,29.97,29.84,10,9,5,22,8,29,0.12,8,,43
2011-10-5,55,48,42,46,39,32,87,68,47,30.02,29.84,29.78,10,10,6,20,12,32,0.01,6,,358
2011-10-6,48,42,35,30,23,18,70,50,30,30.22,30.13,30.05,10,10,3,17,8,30,0.00,1,,339
2011-10-7,53,42,30,36,27,23,80,57,35,30.39,30.34,30.28,10,10,10,10,6,,0.00,0,,324
2011-10-8,78,63,48,55,48,43,87,62,42,30.30,30.25,30.19,10,10,10,10,6,17,0.00,0,,251
2011-10-9,84,68,51,52,48,45,76,49,30,30.20,30.16,30.10,10,10,10,13,5,18,0.00,0,,270
2011-10-10,77,65,53,54,46,34,82,52,25,30.08,30.03,29.98,10,10,10,13,5,24,0.00,0,,311
2011-10-11,60,51,42,39,36,34,71,58,42,30.24,30.20,30.13,10,10,10,13,5,18,0.00,0,,5
2011-10-12,53,46,39,45,40,36,87,75,58,30.30,30.27,30.21,10,10,10,10,5,,0.00,4,,69
2011-10-13,57,52,48,54,49,45,88,84,77,30.17,30.03,29.88,10,7,2,13,4,18,0.10,8,,91
2011-10-14,59,58,57,55,54,54,94,88,82,29.83,29.75,29.57,7,3,0,10,6,,0.03,8,,98
2011-10-15,62,58,55,57,49,45,88,69,55,29.52,29.42,29.26,10,9,2,28,19,36,0.11,5,,211
2011-10-16,59,55,51,41,38,37,62,53,45,29.64,29.60,29.54,10,10,10,16,12,24,0.00,4,,235
2011-10-17,60,55,50,48,40,30,82,57,31,29.62,29.55,29.47,10,10,7,23,11,28,0.05,4,,246
2011-10-18,60,54,48,45,42,37,76,61,42,29.88,29.74,29.64,10,10,10,13,5,18,0.00,3,,238
2011-10-19,55,50,44,46,43,39,87,79,63,30.08,30.01,29.95,10,10,7,12,4,20,0.03,4,,41
2011-10-20,60,56,53,55,49,46,88,80,72,29.78,29.63,29.53,10,7,2,17,12,25,0.31,7,,91
2011-10-21,59,54,48,46,43,39,82,65,48,29.87,29.73,29.61,10,10,10,21,12,30,0.00,1,,227
2011-10-22,55,48,41,46,42,37,93,77,58,29.96,29.92,29.88,10,10,7,10,2,,0.00,6,,240
2011-10-23,57,49,41,43,39,36,82,66,47,30.08,30.04,29.98,10,10,9,14,3,,0.00,4,,246
2011-10-24,55,48,42,45,39,36,93,70,47,30.11,30.07,29.98,10,10,10,14,3,,0.00,5,,204
2011-10-25,57,54,48,46,42,36,87,70,54,29.91,29.78,29.70,10,10,5,15,6,20,0.08,6,,281
2011-10-26,53,47,39,34,30,27,66,53,35,29.84,29.79,29.72,10,10,10,15,8,22,0.00,0,,311
2011-10-27,42,40,37,28,26,23,70,58,49,29.79,29.75,29.69,10,10,10,10,5,,0.00,8,,13
2011-10-28,46,40,33,30,22,18,81,53,32,30.11,29.94,29.78,10,10,10,14,6,23,0.00,3,,321
2011-10-29,42,34,26,25,22,18,74,55,42,30.27,30.19,30.05,10,10,10,8,4,,0.00,2,,22
2011-10-30,39,36,33,28,27,25,81,73,60,30.02,29.75,29.58,10,6,1,25,17,36,0.23,7,,2
2011-10-31,48,40,32,28,25,21,75,56,40,30.37,30.30,30.14,10,10,10,9,6,,0.00,0,,281